Time;durP1;ratioP1;P1;durP2;ratioP2;P2;SDS_P1;SDS_P2;PMS_P1;PMS_P2;Temp;Humidity;BMP_temperature;BMP_pressure;BME280_temperature;BME280_humidity;BME280_pressure;Samples;Min_cycle;Max_cycle;Signal;HPM_P1;HPM_P2
2022/12/24 00:02:10;;;;;;;;;;;;;;;5.09;100.00;100270.13;5087377;28;19932;-76
2022/12/24 00:04:35;;;;;;;;;;;;;;;5.09;100.00;100268.38;5087796;28;19928;-76
2022/12/24 00:07:00;;;;;;;;;;;;;;;5.09;100.00;100262.25;5087373;28;19967;-76
2022/12/24 00:09:26;;;;;;;;;;;;;;;5.09;100.00;100264.88;5069021;28;19924;-76
2022/12/24 00:11:51;;;;;;;;;;;;;;;5.05;100.00;100264.13;5068649;28;19966;-76
2022/12/24 00:14:17;;;;;;;;;;;;;;;5.06;100.00;100275.50;5085990;28;20398;-76
2022/12/24 00:16:42;;;;;;;;;;;;;;;5.06;100.00;100267.63;5086366;28;19939;-77
2022/12/24 00:19:07;;;;;;;;;;;;;;;5.06;100.00;100271.09;5087033;28;19934;-77
2022/12/24 00:21:33;;;;;;;;;;;;;;;5.07;100.00;100282.44;5067408;28;19935;-76
2022/12/24 00:23:58;;;;;;;;;;;;;;;5.08;100.00;100278.91;5086339;28;19939;-76
2022/12/24 00:26:24;;;;;;;;;;;;;;;5.09;100.00;100283.25;5086607;28;20386;-77
2022/12/24 00:28:49;;;;;;;;;;;;;;;5.10;100.00;100287.59;5069057;28;19928;-76
2022/12/24 00:31:16;;;;;;;;;;;;;;;5.11;100.00;100294.56;5067441;28;20348;-76
2022/12/24 00:33:41;;;;;;;;;;;;;;;5.10;100.00;100298.97;5068827;28;19928;-76
2022/12/24 00:36:07;;;;;;;;;;;;;;;5.13;100.00;100295.38;5085794;28;19978;-76
2022/12/24 00:38:32;;;;;;;;;;;;;;;5.14;100.00;100289.22;5085336;28;20440;-76
2022/12/24 00:40:59;;;;;;;;;;;;;;;5.14;100.00;100290.06;5086328;28;19928;-76
2022/12/24 00:43:24;;;;;;;;;;;;;;;5.16;100.00;100290.03;5068163;28;20357;-77
2022/12/24 00:45:50;;;;;;;;;;;;;;;5.16;100.00;100293.53;5067074;28;19932;-76
2022/12/24 00:48:15;;;;;;;;;;;;;;;5.17;100.00;100299.63;5085696;28;20062;-76
2022/12/24 00:50:41;;;;;;;;;;;;;;;5.17;100.00;100294.38;5085328;28;20034;-76
2022/12/24 00:53:06;;;;;;;;;;;;;;;5.18;100.00;100297.84;5085851;28;19987;-76
2022/12/24 00:55:31;;;;;;;;;;;;;;;5.18;100.00;100293.47;5066754;28;19931;-76
2022/12/24 00:57:57;;;;;;;;;;;;;;;5.19;100.00;100303.06;5086526;28;20033;-76
2022/12/24 01:00:22;;;;;;;;;;;;;;;5.22;100.00;100304.75;5085428;28;20524;-76
2022/12/24 01:02:48;;;;;;;;;;;;;;;5.22;100.00;100302.94;5067991;28;19975;-77
2022/12/24 01:05:13;;;;;;;;;;;;;;;5.23;100.00;100309.91;5067884;28;19967;-76
2022/12/24 01:07:40;;;;;;;;;;;;;;;5.24;100.00;100316.03;5084760;28;19938;-77
2022/12/24 01:10:06;;;;;;;;;;;;;;;5.25;100.00;100307.25;5086397;28;19928;-76
2022/12/24 01:12:32;;;;;;;;;;;;;;;5.26;100.00;100314.22;5067608;28;19924;-76
2022/12/24 01:14:57;;;;;;;;;;;;;;;5.24;100.00;100319.50;5085115;28;19927;-76
2022/12/24 01:17:22;;;;;;;;;;;;;;;5.25;100.00;100326.50;5066323;28;20485;-76
2022/12/24 01:19:48;;;;;;;;;;;;;;;5.26;100.00;100324.72;5084384;28;19931;-76
2022/12/24 01:22:13;;;;;;;;;;;;;;;5.26;100.00;100330.84;5066827;28;19928;-76
2022/12/24 01:24:39;;;;;;;;;;;;;;;5.28;100.00;100330.75;5085507;28;19931;-76
2022/12/24 01:27:04;;;;;;;;;;;;;;;5.27;100.00;100327.31;5067710;28;19949;-76
2022/12/24 01:29:30;;;;;;;;;;;;;;;5.28;100.00;100329.00;5067352;28;19932;-76
2022/12/24 01:31:55;;;;;;;;;;;;;;;5.29;100.00;100320.22;5066217;28;19988;-76
2022/12/24 01:34:21;;;;;;;;;;;;;;;5.32;100.00;100336.81;5085874;28;20019;-76
2022/12/24 01:36:46;;;;;;;;;;;;;;;5.32;100.00;100339.44;5067597;28;19924;-77
2022/12/24 01:39:11;;;;;;;;;;;;;;;5.31;100.00;100354.31;5084097;28;20439;-76
2022/12/24 01:44:27;;;;;;;;;;;;;;;5.34;100.00;100356.81;5085148;28;19962;-76
2022/12/24 01:46:58;;;;;;;;;;;;;;;5.34;100.00;100353.34;5070942;28;19928;-76
2022/12/24 01:49:23;;;;;;;;;;;;;;;5.34;100.00;100362.06;5085575;28;19923;-76
2022/12/24 01:51:53;;;;;;;;;;;;;;;5.37;100.00;100366.38;5067062;28;19923;-77
2022/12/24 01:54:21;;;;;;;;;;;;;;;5.41;100.00;100371.47;5066610;28;19928;-77
2022/12/24 01:56:48;;;;;;;;;;;;;;;5.46;100.00;100373.09;5085359;28;20041;-77
2022/12/24 01:59:14;;;;;;;;;;;;;;;5.52;100.00;100376.41;5066394;28;19935;-77
2022/12/24 02:01:39;;;;;;;;;;;;;;;5.57;100.00;100384.97;5053986;28;19924;-76
2022/12/24 02:04:13;;;;;;;;;;;;;;;5.63;100.00;100380.44;5067255;28;20375;-77
2022/12/24 02:06:38;;;;;;;;;;;;;;;5.70;100.00;100384.59;5066527;28;20158;-77
2022/12/24 02:09:03;;;;;;;;;;;;;;;5.77;100.00;100388.75;5066918;28;19932;-76
2022/12/24 02:11:29;;;;;;;;;;;;;;;5.84;100.00;100398.13;5084366;28;19938;-77
2022/12/24 02:13:55;;;;;;;;;;;;;;;5.91;100.00;100392.69;5083923;28;19930;-76
2022/12/24 02:16:29;;;;;;;;;;;;;;;5.96;100.00;100403.91;5084583;28;19938;-76
2022/12/24 02:19:01;;;;;;;;;;;;;;;6.00;100.00;100408.16;5084152;28;20616;-76
2022/12/24 02:21:30;;;;;;;;;;;;;;;6.02;100.00;100403.72;5084894;28;19928;-76
2022/12/24 02:24:02;;;;;;;;;;;;;;;6.05;100.00;100421.16;5084646;28;20394;-76
2022/12/24 02:26:46;;;;;;;;;;;;;;;6.08;100.00;100426.31;5066527;28;19989;-77
2022/12/24 02:29:30;;;;;;;;;;;;;;;6.14;100.00;100430.53;5083902;28;20329;-76
2022/12/24 02:31:58;;;;;;;;;;;;;;;6.18;100.00;100424.22;5083649;28;19930;-76
2022/12/24 02:34:31;;;;;;;;;;;;;;;6.22;100.00;100423.22;5067335;28;19924;-77
2022/12/24 02:36:58;;;;;;;;;;;;;;;6.27;100.00;100436.22;5084704;28;19928;-77
2022/12/24 02:39:27;;;;;;;;;;;;;;;6.33;100.00;100438.63;5083852;28;19924;-77
2022/12/24 02:42:04;;;;;;;;;;;;;;;6.38;100.00;100440.19;5054937;28;19931;-76
2022/12/24 02:44:30;;;;;;;;;;;;;;;6.45;100.00;100447.88;5066761;28;20402;-77
2022/12/24 02:46:56;;;;;;;;;;;;;;;6.50;100.00;100443.31;5054968;28;19928;-77
2022/12/24 02:49:22;;;;;;;;;;;;;;;6.52;100.00;100455.50;5049401;28;19935;-77
2022/12/24 02:51:47;;;;;;;;;;;;;;;6.55;100.00;100457.16;5083843;28;20402;-77
2022/12/24 02:54:13;;;;;;;;;;;;;;;6.58;100.00;100464.94;5066142;28;20353;-77
2022/12/24 02:56:50;;;;;;;;;;;;;;;6.60;100.00;100457.00;5064784;28;19928;-77
2022/12/24 02:59:16;;;;;;;;;;;;;;;6.61;100.00;100459.59;5084218;28;20552;-77
2022/12/24 03:01:44;;;;;;;;;;;;;;;6.61;100.00;100464.84;5084490;28;19928;-77
2022/12/24 03:04:40;;;;;;;;;;;;;;;6.61;100.00;100462.22;5083103;28;20070;-77
2022/12/24 03:07:14;;;;;;;;;;;;;;;6.64;100.00;100475.25;5082685;28;20026;-77
2022/12/24 03:09:39;;;;;;;;;;;;;;;6.66;100.00;100473.41;5065665;28;19928;-77
2022/12/24 03:12:07;;;;;;;;;;;;;;;6.69;100.00;100482.13;5084223;28;20322;-77
2022/12/24 03:14:33;;;;;;;;;;;;;;;6.70;100.00;100483.84;5064704;28;19924;-77
2022/12/24 03:16:59;;;;;;;;;;;;;;;6.73;100.00;100487.22;5084476;28;20021;-76
2022/12/24 03:19:24;;;;;;;;;;;;;;;6.73;100.00;100487.22;5065507;28;19928;-76
2022/12/24 03:21:49;;;;;;;;;;;;;;;6.73;100.00;100483.72;5065648;28;19928;-76
2022/12/24 03:24:15;;;;;;;;;;;;;;;6.75;100.00;100497.72;5083651;28;19963;-77
2022/12/24 03:26:40;;;;;;;;;;;;;;;6.74;100.00;100498.59;5083312;28;19974;-77
2022/12/24 03:29:06;;;;;;;;;;;;;;;6.73;100.00;100508.28;5086890;28;20000;-77
2022/12/24 03:31:41;;;;;;;;;;;;;;;6.72;100.00;100511.84;5069953;28;19932;-77
2022/12/24 03:34:06;;;;;;;;;;;;;;;6.70;100.00;100512.78;5068351;28;21649;-76
2022/12/24 03:36:31;;;;;;;;;;;;;;;6.69;100.00;100518.97;5068422;28;20493;-76
2022/12/24 03:38:57;;;;;;;;;;;;;;;6.68;100.00;100519.84;5088248;28;19928;-76
2022/12/24 03:41:22;;;;;;;;;;;;;;;6.64;100.00;100522.59;5087206;28;20939;-76
2022/12/24 03:43:48;;;;;;;;;;;;;;;6.61;100.00;100517.47;5086520;28;19928;-75
2022/12/24 03:46:13;;;;;;;;;;;;;;;6.56;100.00;100519.38;5067854;28;20047;-75
2022/12/24 03:48:38;;;;;;;;;;;;;;;6.54;100.00;100522.97;5052124;28;19932;-75
2022/12/24 03:51:04;;;;;;;;;;;;;;;6.51;100.00;100522.19;5088084;28;20489;-76
2022/12/24 03:53:29;;;;;;;;;;;;;;;6.48;100.00;100521.41;5086560;28;19935;-76
2022/12/24 03:55:55;;;;;;;;;;;;;;;6.46;100.00;100523.22;5085824;28;19928;-75
2022/12/24 03:58:20;;;;;;;;;;;;;;;6.43;100.00;100528.59;5086348;28;20005;-75
2022/12/24 04:00:46;;;;;;;;;;;;;;;6.40;100.00;100534.81;5069502;28;20041;-75
2022/12/24 04:03:11;;;;;;;;;;;;;;;6.38;100.00;100529.59;5086948;28;20072;-75
2022/12/24 04:05:37;;;;;;;;;;;;;;;6.38;100.00;100531.38;5069389;28;20307;-75
2022/12/24 04:08:02;;;;;;;;;;;;;;;6.37;100.00;100535.78;5068221;28;20386;-76
2022/12/24 04:10:27;;;;;;;;;;;;;;;6.37;100.00;100543.66;5067397;28;20910;-76
2022/12/24 04:12:53;;;;;;;;;;;;;;;6.36;100.00;100546.34;5085870;28;20604;-76
2022/12/24 04:15:18;;;;;;;;;;;;;;;6.32;100.00;100540.31;5086945;28;19987;-77
2022/12/24 04:17:44;;;;;;;;;;;;;;;6.29;100.00;100537.78;5086388;28;19979;-76
2022/12/24 04:20:09;;;;;;;;;;;;;;;6.28;100.00;100546.59;5068897;28;19938;-76
2022/12/24 04:22:35;;;;;;;;;;;;;;;6.25;100.00;100550.19;5087094;28;20363;-76
2022/12/24 04:25:00;;;;;;;;;;;;;;;6.24;100.00;100550.22;5087084;28;20026;-76
2022/12/24 04:27:26;;;;;;;;;;;;;;;6.22;100.00;100555.53;5067915;28;19928;-76
2022/12/24 04:29:51;;;;;;;;;;;;;;;6.20;100.00;100553.84;5086561;28;21000;-76
2022/12/24 04:32:16;;;;;;;;;;;;;;;6.20;100.00;100559.09;5085906;28;20055;-76
2022/12/24 04:34:42;;;;;;;;;;;;;;;6.20;100.00;100565.25;5085635;28;20393;-76
2022/12/24 04:37:07;;;;;;;;;;;;;;;6.22;100.00;100559.94;5067749;28;20058;-76
2022/12/24 04:39:32;;;;;;;;;;;;;;;6.23;100.00;100559.03;5067831;28;20064;-76
2022/12/24 04:41:58;;;;;;;;;;;;;;;6.27;100.00;100555.41;5067280;28;19928;-76
2022/12/24 04:44:23;;;;;;;;;;;;;;;6.29;100.00;100569.34;5086371;28;20395;-76
2022/12/24 04:46:49;;;;;;;;;;;;;;;6.31;100.00;100564.88;5085965;28;19942;-76
2022/12/24 04:49:15;;;;;;;;;;;;;;;6.31;100.00;100567.53;5086030;28;20041;-76
2022/12/24 04:51:40;;;;;;;;;;;;;;;6.31;100.00;100571.94;5086092;28;19928;-76
2022/12/24 04:54:06;;;;;;;;;;;;;;;6.31;100.00;100574.56;5085870;28;19951;-76
2022/12/24 04:56:31;;;;;;;;;;;;;;;6.34;100.00;100572.69;5068125;28;20026;-76
2022/12/24 04:58:57;;;;;;;;;;;;;;;6.34;100.00;100577.97;5085279;28;19932;-76
2022/12/24 05:01:24;;;;;;;;;;;;;;;6.37;100.00;100577.84;5068550;28;19927;-77
2022/12/24 05:03:50;;;;;;;;;;;;;;;6.39;100.00;100580.44;5085748;28;20413;-77
2022/12/24 05:06:17;;;;;;;;;;;;;;;6.41;100.00;100580.34;5049861;28;19927;-76
2022/12/24 05:08:42;;;;;;;;;;;;;;;6.40;100.00;100576.88;5084543;28;19934;-76
2022/12/24 05:11:08;;;;;;;;;;;;;;;6.44;100.00;100573.25;5085778;28;19923;-76
2022/12/24 05:13:34;;;;;;;;;;;;;;;6.46;100.00;100578.44;5085991;28;19919;-77
2022/12/24 05:15:59;;;;;;;;;;;;;;;6.43;100.00;100576.78;5067620;28;19928;-77
2022/12/24 05:18:24;;;;;;;;;;;;;;;6.41;100.00;100567.22;5085035;28;19919;-77
2022/12/24 05:20:50;;;;;;;;;;;;;;;6.40;100.00;100566.38;5085161;28;20015;-76
2022/12/24 05:28:44;;;;;;;;;;;;;;;6.36;100.00;100570.88;5069738;28;19927;-76
2022/12/24 05:31:09;;;;;;;;;;;;;;;6.34;100.00;100572.69;5067683;28;20076;-76
2022/12/24 05:33:34;;;;;;;;;;;;;;;6.31;100.00;100588.56;5084649;28;19928;-76
2022/12/24 05:36:00;;;;;;;;;;;;;;;6.29;100.00;100590.38;5084857;28;20746;-76
2022/12/24 05:38:25;;;;;;;;;;;;;;;6.28;100.00;100603.56;5085429;28;19932;-76
2022/12/24 05:40:50;;;;;;;;;;;;;;;6.25;100.00;100605.41;5085490;28;19928;-76
2022/12/24 05:43:16;;;;;;;;;;;;;;;6.24;100.00;100597.53;5084873;28;19959;-76
2022/12/24 05:45:41;;;;;;;;;;;;;;;6.23;100.00;100598.47;5085501;28;19935;-75
2022/12/24 05:48:07;;;;;;;;;;;;;;;6.23;100.00;100611.59;5084821;28;19923;-75
2022/12/24 05:50:32;;;;;;;;;;;;;;;6.22;100.00;100605.47;5066370;28;20403;-75
2022/12/24 05:52:58;;;;;;;;;;;;;;;6.20;100.00;100612.56;5085528;28;19963;-75
2022/12/24 05:55:23;;;;;;;;;;;;;;;6.19;100.00;100620.47;5065625;28;19938;-76
2022/12/24 05:57:49;;;;;;;;;;;;;;;6.19;100.00;100623.09;5083893;28;21626;-76
2022/12/24 06:00:14;;;;;;;;;;;;;;;6.16;100.00;100620.59;5083903;28;19927;-76
2022/12/24 06:02:40;;;;;;;;;;;;;;;6.15;100.00;100632.84;5052837;28;19928;-77
2022/12/24 06:05:05;;;;;;;;;;;;;;;6.13;100.00;100632.06;5083841;28;19932;-76
2022/12/24 06:07:30;;;;;;;;;;;;;;;6.11;100.00;100637.34;5066869;28;19932;-76
2022/12/24 06:09:56;;;;;;;;;;;;;;;6.11;100.00;100639.13;5084782;28;19939;-76
2022/12/24 06:12:21;;;;;;;;;;;;;;;6.10;100.00;100629.53;5084772;28;20710;-76
2022/12/24 06:14:46;;;;;;;;;;;;;;;6.07;100.00;100637.50;5065848;28;19932;-76
2022/12/24 06:17:12;;;;;;;;;;;;;;;6.06;100.00;100641.03;5085383;28;19932;-76
2022/12/24 06:19:37;;;;;;;;;;;;;;;6.04;100.00;100648.97;5049570;28;19975;-76
2022/12/24 06:22:03;;;;;;;;;;;;;;;6.02;100.00;100634.09;5066612;28;19928;-76
2022/12/24 06:24:28;;;;;;;;;;;;;;;6.00;100.00;100642.06;5084524;28;20350;-76
2022/12/24 06:26:53;;;;;;;;;;;;;;;5.98;100.00;100646.47;5084618;28;19934;-76
2022/12/24 06:29:19;;;;;;;;;;;;;;;5.98;100.00;100655.22;5070649;28;19928;-76
2022/12/24 06:31:44;;;;;;;;;;;;;;;6.00;100.00;100660.44;5084250;28;20083;-76
2022/12/24 06:34:10;;;;;;;;;;;;;;;6.01;100.00;100654.28;5083654;28;20434;-75
2022/12/24 06:36:35;;;;;;;;;;;;;;;6.03;100.00;100662.13;5083544;28;19927;-75
2022/12/24 06:39:00;;;;;;;;;;;;;;;6.04;100.00;100659.47;5083148;28;19924;-76
2022/12/24 06:41:26;;;;;;;;;;;;;;;6.05;100.00;100662.97;5054001;28;19928;-76
2022/12/24 06:43:51;;;;;;;;;;;;;;;6.05;100.00;100669.06;5083648;28;19927;-75
2022/12/24 06:46:17;;;;;;;;;;;;;;;6.04;100.00;100671.75;5066294;28;19983;-75
2022/12/24 06:48:44;;;;;;;;;;;;;;;6.05;100.00;100665.59;5082938;28;19923;-76
2022/12/24 06:51:09;;;;;;;;;;;;;;;6.05;100.00;100665.59;5083646;28;21868;-75
2022/12/24 06:53:35;;;;;;;;;;;;;;;6.03;100.00;100673.53;5066455;28;20013;-76
2022/12/24 06:56:04;;;;;;;;;;;;;;;6.00;100.00;100673.59;5065274;28;20348;-76
2022/12/24 06:58:29;;;;;;;;;;;;;;;5.98;100.00;100680.63;5066471;28;20279;-75
2022/12/24 07:00:55;;;;;;;;;;;;;;;5.94;100.00;100681.66;5065344;28;19927;-75
2022/12/24 07:03:20;;;;;;;;;;;;;;;5.88;100.00;100679.19;5069053;28;20022;-75
2022/12/24 07:05:45;;;;;;;;;;;;;;;5.85;100.00;100683.63;5070174;28;19980;-75
2022/12/24 07:08:11;;;;;;;;;;;;;;;5.85;100.00;100693.28;5069867;28;19931;-75
2022/12/24 07:10:36;;;;;;;;;;;;;;;5.84;100.00;100692.41;5069947;28;19931;-76
2022/12/24 07:13:02;;;;;;;;;;;;;;;5.82;100.00;100696.84;5088103;28;19931;-76
2022/12/24 07:15:27;;;;;;;;;;;;;;;5.78;100.00;100699.59;5087491;28;19932;-76
2022/12/24 07:17:52;;;;;;;;;;;;;;;5.75;100.00;100700.56;5069944;28;19928;-76
2022/12/24 07:20:18;;;;;;;;;;;;;;;5.72;100.00;100700.63;5086837;28;19932;-76
2022/12/24 07:22:43;;;;;;;;;;;;;;;5.71;100.00;100701.53;5057034;28;20429;-76
2022/12/24 07:25:09;;;;;;;;;;;;;;;5.67;100.00;100702.53;5087590;28;19963;-76
2022/12/24 07:27:34;;;;;;;;;;;;;;;5.63;100.00;100700.88;5087797;28;20412;-76
2022/12/24 07:30:00;;;;;;;;;;;;;;;5.60;100.00;100706.22;5056830;28;20378;-76
2022/12/24 07:32:25;;;;;;;;;;;;;;;5.56;100.00;100711.56;5087171;28;19962;-76
2022/12/24 07:34:51;;;;;;;;;;;;;;;5.55;100.00;100728.22;5088076;28;19931;-76
2022/12/24 07:37:16;;;;;;;;;;;;;;;5.52;100.00;100730.94;5069272;28;19927;-76
2022/12/24 07:39:41;;;;;;;;;;;;;;;5.51;100.00;100730.97;5068342;28;20349;-76
2022/12/24 07:42:07;;;;;;;;;;;;;;;5.50;100.00;100731.88;5056963;28;19934;-76
2022/12/24 07:44:33;;;;;;;;;;;;;;;5.49;100.00;100741.50;5086201;28;19939;-76
2022/12/24 07:46:58;;;;;;;;;;;;;;;5.50;100.00;100731.88;5087465;28;19932;-76
2022/12/24 07:49:23;;;;;;;;;;;;;;;5.51;100.00;100734.44;5051495;28;20394;-76
2022/12/24 07:51:49;;;;;;;;;;;;;;;5.54;100.00;100750.13;5068274;28;19932;-76
2022/12/24 07:54:14;;;;;;;;;;;;;;;5.58;100.00;100751.75;5068731;28;19924;-76
2022/12/24 07:56:41;;;;;;;;;;;;;;;5.63;100.00;100753.41;5087486;28;19934;-76
2022/12/24 07:59:06;;;;;;;;;;;;;;;5.66;100.00;100761.22;5069447;28;19924;-76
2022/12/24 08:01:31;;;;;;;;;;;;;;;5.69;100.00;100748.00;5068777;28;20416;-76
2022/12/24 08:03:57;;;;;;;;;;;;;;;5.71;100.00;100760.19;5087168;28;19928;-76
2022/12/24 08:06:22;;;;;;;;;;;;;;;5.75;100.00;100765.34;5087609;28;19962;-76
2022/12/24 08:08:48;;;;;;;;;;;;;;;5.77;100.00;100772.28;5073052;28;19935;-76
2022/12/24 08:11:13;;;;;;;;;;;;;;;5.78;100.00;100776.66;5069126;28;19962;-76
2022/12/24 08:13:39;;;;;;;;;;;;;;;5.81;100.00;100779.22;5068562;28;19928;-76
2022/12/24 08:16:04;;;;;;;;;;;;;;;5.82;100.00;100783.56;5068705;28;19957;-76
2022/12/24 08:18:30;;;;;;;;;;;;;;;5.85;100.00;100791.34;5086501;28;19950;-76
2022/12/24 08:20:55;;;;;;;;;;;;;;;5.90;100.00;100798.25;5068141;28;20341;-76
2022/12/24 08:23:21;;;;;;;;;;;;;;;5.93;100.00;100798.16;5086648;28;19927;-75
2022/12/24 08:25:47;;;;;;;;;;;;;;;5.96;100.00;100804.22;5085699;28;19935;-76
2022/12/24 08:28:13;;;;;;;;;;;;;;;6.01;100.00;100809.34;5056009;28;19968;-76
2022/12/24 08:30:38;;;;;;;;;;;;;;;6.04;100.00;100813.69;5051549;28;19969;-76
2022/12/24 08:33:04;;;;;;;;;;;;;;;6.07;100.00;100822.38;5068258;28;20513;-76
2022/12/24 08:35:29;;;;;;;;;;;;;;;6.12;100.00;100824.84;5085198;28;20504;-76
2022/12/24 08:37:55;;;;;;;;;;;;;;;6.17;100.00;100819.47;5068543;28;19939;-76
2022/12/24 08:40:20;;;;;;;;;;;;;;;6.22;100.00;100820.22;5068049;28;20598;-76
2022/12/24 08:42:45;;;;;;;;;;;;;;;6.27;100.00;100823.59;5085668;28;20457;-76
2022/12/24 08:45:11;;;;;;;;;;;;;;;6.30;100.00;100823.50;5085924;28;19939;-76
2022/12/24 08:47:36;;;;;;;;;;;;;;;6.35;100.00;100826.84;5086300;28;20309;-76
2022/12/24 08:50:03;;;;;;;;;;;;;;;6.39;100.00;100833.75;5085325;28;20848;-76
2022/12/24 08:52:28;;;;;;;;;;;;;;;6.44;100.00;100838.03;5085215;28;19923;-76
2022/12/24 08:54:54;;;;;;;;;;;;;;;6.48;100.00;100843.16;5084887;28;19935;-76
2022/12/24 08:57:19;;;;;;;;;;;;;;;6.53;100.00;100843.00;5067878;28;19920;-75
2022/12/24 08:59:45;;;;;;;;;;;;;;;6.58;100.00;100843.75;5066745;28;19935;-76
2022/12/24 09:02:10;;;;;;;;;;;;;;;6.60;100.00;100847.19;5072245;28;19931;-75
2022/12/24 09:04:39;;;;;;;;;;;;;;;6.62;100.00;100845.41;5084855;28;19924;-75
2022/12/24 09:07:05;;;;;;;;;;;;;;;6.70;100.00;100849.56;5049792;28;19928;-76
2022/12/24 09:09:30;;;;;;;;;;;;;;;6.74;100.00;100857.31;5067754;28;20304;-75
2022/12/24 09:11:55;;;;;;;;;;;;;;;6.80;100.00;100851.00;5066859;28;19967;-76
2022/12/24 09:14:21;;;;;;;;;;;;;;;6.83;100.00;100852.69;5048234;28;20065;-77
2022/12/24 09:16:46;;;;;;;;;;;;;;;6.84;100.00;100860.53;5063713;28;19934;-76
2022/12/24 09:19:12;;;;;;;;;;;;;;;6.87;100.00;100864.88;5068641;28;19928;-76
2022/12/24 09:21:37;;;;;;;;;;;;;;;6.91;100.00;100867.34;5065314;28;20386;-76
2022/12/24 09:24:03;;;;;;;;;;;;;;;6.97;100.00;100870.72;5085527;28;19928;-76
2022/12/24 09:26:30;;;;;;;;;;;;;;;7.00;100.00;100876.75;5084303;28;19928;-76
2022/12/24 09:28:55;;;;;;;;;;;;;;;7.03;100.00;100876.66;5067538;28;20229;-77
2022/12/24 09:31:24;;;;;;;;;;;;;;;7.05;100.00;100887.13;5086856;28;19935;-76
2022/12/24 09:33:49;;;;;;;;;;;;;;;7.07;100.00;100882.69;5086125;28;19928;-76
2022/12/24 09:36:15;;;;;;;;;;;;;;;7.09;100.00;100888.78;5067504;28;19958;-76
2022/12/24 09:38:41;;;;;;;;;;;;;;;7.11;100.00;100888.72;5074579;28;19988;-76
2022/12/24 09:41:14;;;;;;;;;;;;;;;7.13;100.00;100892.19;5056872;28;20406;-76
2022/12/24 09:43:42;;;;;;;;;;;;;;;7.14;100.00;100899.16;5067026;28;19997;-75
2022/12/24 09:46:08;;;;;;;;;;;;;;;7.15;100.00;100896.47;5065857;28;20009;-75
2022/12/24 09:48:35;;;;;;;;;;;;;;;7.17;100.00;100902.56;5066275;28;19928;-75
2022/12/24 09:51:11;;;;;;;;;;;;;;;7.20;100.00;100909.53;5084068;28;19935;-76
2022/12/24 09:53:40;;;;;;;;;;;;;;;7.25;100.00;100912.00;5065567;28;21464;-76
2022/12/24 09:56:16;;;;;;;;;;;;;;;7.27;100.00;100918.09;5083435;28;21409;-76
2022/12/24 09:58:46;;;;;;;;;;;;;;;7.29;100.00;100917.13;5066016;28;19924;-76
2022/12/24 10:01:12;;;;;;;;;;;;;;;7.31;100.00;100914.47;5066926;28;19960;-77
2022/12/24 10:03:37;;;;;;;;;;;;;;;7.32;100.00;100924.06;5070512;28;20006;-76
2022/12/24 10:06:05;;;;;;;;;;;;;;;7.32;100.00;100924.06;5065597;28;20377;-76
2022/12/24 10:08:31;;;;;;;;;;;;;;;7.35;100.00;100923.97;5084947;28;19939;-76
2022/12/24 10:11:00;;;;;;;;;;;;;;;7.37;100.00;100919.53;5084936;28;19927;-76
2022/12/24 10:13:37;;;;;;;;;;;;;;;7.40;100.00;100923.84;5065539;28;19973;-77
2022/12/24 10:16:07;;;;;;;;;;;;;;;7.43;100.00;100922.00;5083936;28;20031;-76
2022/12/24 10:18:55;;;;;;;;;;;;;;;7.46;100.00;100932.41;5065355;28;20055;-76
2022/12/24 10:21:20;;;;;;;;;;;;;;;7.50;100.00;100929.66;5066515;28;19937;-76
2022/12/24 10:23:58;;;;;;;;;;;;;;;7.52;100.00;100928.72;5065046;28;19974;-76
2022/12/24 10:26:25;;;;;;;;;;;;;;;7.54;100.00;100932.19;5084770;28;20536;-77
2022/12/24 10:28:52;;;;;;;;;;;;;;;7.56;100.00;100943.53;5084355;28;19935;-77
2022/12/24 10:31:31;;;;;;;;;;;;;;;7.59;100.00;100942.56;5053714;28;20030;-77
2022/12/24 10:34:10;;;;;;;;;;;;;;;7.59;100.00;100938.16;5065137;28;19924;-77
2022/12/24 10:36:35;;;;;;;;;;;;;;;7.60;100.00;100939.03;5066218;28;19923;-77
2022/12/24 10:39:00;;;;;;;;;;;;;;;7.60;100.00;100949.56;5083902;28;20578;-77
2022/12/24 10:41:26;;;;;;;;;;;;;;;7.60;100.00;100941.66;5083917;28;21799;-77
2022/12/24 10:43:51;;;;;;;;;;;;;;;7.61;100.00;100943.38;5066336;28;20320;-76
2022/12/24 10:46:18;;;;;;;;;;;;;;;7.60;100.00;100939.91;5065483;28;19951;-77
2022/12/24 10:48:53;;;;;;;;;;;;;;;7.61;100.00;100946.88;5065804;28;20209;-76
2022/12/24 10:51:24;;;;;;;;;;;;;;;7.60;100.00;100939.91;5084236;28;20882;-76
2022/12/24 10:53:56;;;;;;;;;;;;;;;7.60;100.00;100939.03;5084803;28;20455;-76
2022/12/24 10:56:22;;;;;;;;;;;;;;;7.61;100.00;100940.75;5084549;28;20409;-77
2022/12/24 10:58:51;;;;;;;;;;;;;;;7.63;100.00;100943.34;5083034;28;19927;-77
2022/12/24 11:01:17;;;;;;;;;;;;;;;7.63;100.00;100945.97;5048127;28;19928;-76
2022/12/24 11:03:42;;;;;;;;;;;;;;;7.64;100.00;100955.59;5066119;28;20487;-77
2022/12/24 11:06:12;;;;;;;;;;;;;;;7.64;100.00;100959.09;5084378;28;20302;-76
2022/12/24 11:08:39;;;;;;;;;;;;;;;7.65;100.00;100947.66;5084701;28;19934;-76
2022/12/24 11:11:06;;;;;;;;;;;;;;;7.67;100.00;100948.47;5065580;28;19934;-76
2022/12/24 11:13:35;;;;;;;;;;;;;;;7.69;100.00;100948.41;5053226;28;20399;-76
2022/12/24 11:16:05;;;;;;;;;;;;;;;7.69;100.00;100948.41;5064294;28;19927;-76
2022/12/24 11:18:32;;;;;;;;;;;;;;;7.68;100.00;100947.53;5049182;28;20493;-76
2022/12/24 11:20:59;;;;;;;;;;;;;;;7.68;100.00;100959.88;5066117;28;19920;-76
2022/12/24 11:23:25;;;;;;;;;;;;;;;7.66;100.00;100959.91;5055553;28;19940;-76
2022/12/24 11:25:50;;;;;;;;;;;;;;;7.66;100.00;100962.56;5065486;28;19981;-76
2022/12/24 11:28:16;;;;;;;;;;;;;;;7.66;100.00;100957.28;5066270;28;20277;-76
2022/12/24 11:30:41;;;;;;;;;;;;;;;7.66;100.00;100966.94;5082843;28;19973;-76
2022/12/24 11:33:06;;;;;;;;;;;;;;;7.65;100.00;100974.00;5065896;28;20405;-76
2022/12/24 11:35:32;;;;;;;;;;;;;;;7.66;100.00;100983.63;5064314;28;19935;-75
2022/12/24 11:38:00;;;;;;;;;;;;;;;7.66;100.00;100981.00;5065732;28;20080;-76
2022/12/24 11:40:45;;;;;;;;;;;;;;;7.66;100.00;100990.66;5064228;28;20123;-76
2022/12/24 11:43:14;;;;;;;;;;;;;;;7.68;100.00;100986.22;5084481;28;19934;-76
2022/12/24 11:45:39;;;;;;;;;;;;;;;7.68;100.00;100994.97;5065483;28;19970;-76
2022/12/24 11:48:21;;;;;;;;;;;;;;;7.68;100.00;100988.88;5048095;28;20015;-76
2022/12/24 11:50:47;;;;;;;;;;;;;;;7.68;100.00;100992.34;5068969;28;19935;-76
2022/12/24 11:53:17;;;;;;;;;;;;;;;7.68;100.00;100994.97;5067774;28;20492;-76
2022/12/24 11:55:47;;;;;;;;;;;;;;;7.70;100.00;100997.56;5069045;28;19928;-76
2022/12/24 11:58:20;;;;;;;;;;;;;;;7.70;100.00;101005.47;5068182;28;19955;-76
2022/12/24 12:00:46;;;;;;;;;;;;;;;7.71;100.00;101000.19;5069390;28;19931;-76
2022/12/24 12:03:47;;;;;;;;;;;;;;;7.71;100.00;101001.94;5068303;28;19923;-76
2022/12/24 12:06:31;;;;;;;;;;;;;;;7.70;100.00;101022.16;4992263;28;19992;-76
2022/12/24 12:08:59;;;;;;;;;;;;;;;7.71;100.00;101029.16;5078065;28;20270;-76
2022/12/24 12:11:24;;;;;;;;;;;;;;;7.72;100.00;101019.47;5087152;28;19919;-76
2022/12/24 12:13:50;;;;;;;;;;;;;;;7.72;100.00;101022.97;5056503;28;20764;-76
2022/12/24 12:16:27;;;;;;;;;;;;;;;7.73;100.00;101021.19;5085719;28;19992;-76
2022/12/24 12:18:58;;;;;;;;;;;;;;;7.75;100.00;101027.28;5067858;28;19930;-76
2022/12/24 12:21:24;;;;;;;;;;;;;;;7.74;100.00;101025.56;5068770;28;19947;-76
2022/12/24 12:23:51;;;;;;;;;;;;;;;7.73;100.00;101021.19;5067409;28;19923;-76
2022/12/24 12:26:18;;;;;;;;;;;;;;;7.72;100.00;101027.38;5067833;28;21578;-75
2022/12/24 12:28:53;;;;;;;;;;;;;;;7.72;100.00;101032.66;5067271;28;19928;-76
2022/12/24 12:31:25;;;;;;;;;;;;;;;7.70;100.00;101032.72;5086537;28;19931;-75
2022/12/24 12:33:59;;;;;;;;;;;;;;;7.70;100.00;101038.00;5086290;28;19935;-76
2022/12/24 12:36:25;;;;;;;;;;;;;;;7.70;100.00;101039.75;5086118;28;19927;-75
2022/12/24 12:38:51;;;;;;;;;;;;;;;7.69;100.00;101044.13;5085891;28;19931;-75
2022/12/24 12:41:32;;;;;;;;;;;;;;;7.69;100.00;101041.50;5086070;28;19935;-76
2022/12/24 12:44:16;;;;;;;;;;;;;;;7.68;100.00;101047.69;5085841;28;19927;-76